createdAt,value
2018-10-03T00:00:45.264Z,101053
2018-10-03T00:03:14.836Z,101050
2018-10-03T00:05:43.669Z,101072
2018-10-03T00:08:12.500Z,101068
2018-10-03T00:10:41.343Z,101065
2018-10-03T00:13:10.175Z,101065
2018-10-03T00:15:39.018Z,101061
2018-10-03T00:18:07.850Z,101059
2018-10-03T00:20:36.682Z,101052
2018-10-03T00:23:05.533Z,101068
2018-10-03T00:25:34.375Z,101068
2018-10-03T00:28:03.205Z,101056
2018-10-03T00:30:32.034Z,101054
2018-10-03T00:33:01.620Z,101061
2018-10-03T00:35:30.459Z,101068
2018-10-03T00:37:59.299Z,101080
2018-10-03T00:40:28.135Z,101067
2018-10-03T00:42:56.971Z,101059
2018-10-03T00:45:26.388Z,101056
2018-10-03T00:47:55.238Z,101060
2018-10-03T00:50:24.079Z,101073
2018-10-03T00:52:52.916Z,101078
2018-10-03T00:55:21.755Z,101088
2018-10-03T00:57:50.580Z,101084
2018-10-03T01:00:19.410Z,101077
2018-10-03T01:02:48.255Z,101077
2018-10-03T01:05:17.087Z,101071
2018-10-03T01:07:45.928Z,101095
2018-10-03T01:10:14.753Z,101075
2018-10-03T01:12:43.583Z,101087
2018-10-03T01:15:13.180Z,101076
2018-10-03T01:17:42.769Z,101062
2018-10-03T01:20:11.596Z,101080
2018-10-03T01:22:40.434Z,101076
2018-10-03T01:25:09.253Z,101070
2018-10-03T01:27:38.824Z,101069
2018-10-03T01:30:07.657Z,101063
2018-10-03T01:32:37.235Z,101069
2018-10-03T01:35:06.073Z,101072
2018-10-03T01:37:34.910Z,101076
2018-10-03T01:40:03.744Z,101075
2018-10-03T01:42:32.576Z,101088
2018-10-03T01:45:01.411Z,101089
2018-10-03T01:47:30.246Z,101081
2018-10-03T01:49:59.075Z,101071
2018-10-03T01:52:28.651Z,101074
2018-10-03T01:54:57.473Z,101076
2018-10-03T01:57:26.308Z,101085
2018-10-03T01:59:55.143Z,101083
2018-10-03T02:02:23.978Z,101077
2018-10-03T02:04:52.818Z,101079
2018-10-03T02:07:21.652Z,101080
2018-10-03T02:09:50.483Z,101070
2018-10-03T02:12:19.314Z,101078
2018-10-03T02:14:48.241Z,101061
2018-10-03T02:17:16.975Z,101065
2018-10-03T02:19:46.547Z,101068
2018-10-03T02:22:15.382Z,101075
2018-10-03T02:24:44.220Z,101070
2018-10-03T02:27:13.050Z,101066
2018-10-03T02:29:42.631Z,101057
2018-10-03T02:32:11.468Z,101057
2018-10-03T02:34:40.302Z,101053
2018-10-03T02:37:09.132Z,101057
2018-10-03T02:39:37.970Z,101060
2018-10-03T02:42:06.794Z,101059
2018-10-03T02:44:35.655Z,101085
2018-10-03T02:47:04.484Z,101076
2018-10-03T02:49:33.307Z,101075
2018-10-03T02:52:02.127Z,101065
2018-10-03T02:54:30.978Z,101067
2018-10-03T02:56:59.804Z,101066
2018-10-03T02:59:28.635Z,101069
2018-10-03T03:01:57.471Z,101067
2018-10-03T03:04:26.303Z,101076
2018-10-03T03:06:55.890Z,101077
2018-10-03T03:09:24.743Z,101076
2018-10-03T03:11:53.559Z,101074
2018-10-03T03:14:22.394Z,101071
2018-10-03T03:16:51.231Z,101075
2018-10-03T03:19:20.077Z,101086
2018-10-03T03:21:48.909Z,101083
2018-10-03T03:24:17.745Z,101082
2018-10-03T03:26:46.587Z,101084
2018-10-03T03:29:15.414Z,101073
2018-10-03T03:31:44.251Z,101086
2018-10-03T03:34:13.079Z,101080
2018-10-03T03:36:42.646Z,101077
2018-10-03T03:41:40.325Z,101082
2018-10-03T03:44:09.160Z,101087
2018-10-03T03:46:37.989Z,101084
2018-10-03T03:49:06.831Z,101086
2018-10-03T03:51:35.669Z,101072
2018-10-03T03:54:04.505Z,101087
2018-10-03T03:56:33.334Z,101093
2018-10-03T03:59:02.178Z,101096
2018-10-03T04:01:31.015Z,101105
2018-10-03T04:03:59.846Z,101103
2018-10-03T04:06:28.697Z,101106
2018-10-03T04:08:57.524Z,101099
2018-10-03T04:11:26.365Z,101108
2018-10-03T04:13:55.191Z,101107
2018-10-03T04:16:24.023Z,101104
2018-10-03T04:18:52.859Z,101101
2018-10-03T04:21:21.682Z,101107
2018-10-03T04:23:50.536Z,101101
2018-10-03T04:26:19.356Z,101089
2018-10-03T04:28:48.946Z,101095
2018-10-03T04:31:17.777Z,101079
2018-10-03T04:33:46.609Z,101088
2018-10-03T04:36:15.442Z,101096
2018-10-03T04:38:44.273Z,101105
2018-10-03T04:41:13.097Z,101121
2018-10-03T04:43:41.929Z,101122
2018-10-03T04:46:10.761Z,101128
2018-10-03T04:48:39.593Z,101133
2018-10-03T04:51:08.426Z,101136
2018-10-03T04:53:37.258Z,101141
2018-10-03T04:56:06.840Z,101137
2018-10-03T04:58:35.692Z,101151
2018-10-03T05:01:04.522Z,101148
2018-10-03T05:03:34.098Z,101152
2018-10-03T05:06:02.930Z,101149
2018-10-03T05:08:32.508Z,101145
2018-10-03T05:11:01.339Z,101151
2018-10-03T05:13:30.911Z,101153
2018-10-03T05:15:59.739Z,101145
2018-10-03T05:18:28.597Z,101151
2018-10-03T05:20:57.431Z,101153
2018-10-03T05:23:26.266Z,101153
2018-10-03T05:25:55.851Z,101152
2018-10-03T05:28:24.688Z,101159
2018-10-03T05:30:54.269Z,101164
2018-10-03T05:33:23.174Z,101163
2018-10-03T05:35:51.970Z,101164
2018-10-03T05:38:21.546Z,101173
2018-10-03T05:40:50.381Z,101176
2018-10-03T05:43:19.230Z,101181
2018-10-03T05:45:48.066Z,101191
2018-10-03T05:48:16.933Z,101193
2018-10-03T05:50:45.749Z,101193
2018-10-03T05:53:14.587Z,101199
2018-10-03T05:55:43.423Z,101204
2018-10-03T05:58:12.270Z,101214
2018-10-03T06:00:41.111Z,101210
2018-10-03T06:03:09.949Z,101207
2018-10-03T06:05:38.814Z,101209
2018-10-03T06:08:07.660Z,101214
2018-10-03T06:10:36.488Z,101209
2018-10-03T06:13:05.330Z,101211
2018-10-03T06:15:34.161Z,101215
2018-10-03T06:18:02.987Z,101226
2018-10-03T06:20:32.447Z,101236
2018-10-03T06:23:01.280Z,101230
2018-10-03T06:25:30.121Z,101236
2018-10-03T06:27:59.029Z,101238
2018-10-03T06:30:27.783Z,101251
2018-10-03T06:32:56.609Z,101246
2018-10-03T06:35:25.431Z,101247
2018-10-03T06:37:55.004Z,101246
2018-10-03T06:40:23.837Z,101242
2018-10-03T06:42:52.685Z,101237
2018-10-03T06:45:21.527Z,101250
2018-10-03T06:47:50.402Z,101245
2018-10-03T06:50:19.981Z,101250
2018-10-03T06:52:48.823Z,101265
2018-10-03T06:55:17.657Z,101261
2018-10-03T06:57:46.497Z,101267
2018-10-03T07:00:15.345Z,101262
2018-10-03T07:02:44.176Z,101275
2018-10-03T07:05:13.017Z,101273
2018-10-03T07:07:41.839Z,101284
2018-10-03T07:10:10.680Z,101281
2018-10-03T07:12:39.515Z,101281
2018-10-03T07:15:08.361Z,101279
2018-10-03T07:17:37.191Z,101285
2018-10-03T07:20:06.069Z,101294
2018-10-03T07:22:34.867Z,101292
2018-10-03T07:25:04.446Z,101298
2018-10-03T07:27:33.273Z,101294
2018-10-03T07:30:02.108Z,101293
2018-10-03T07:32:30.955Z,101286
2018-10-03T07:34:59.782Z,101283
2018-10-03T07:37:28.635Z,101292
2018-10-03T07:39:58.241Z,101290
2018-10-03T07:42:27.075Z,101303
2018-10-03T07:44:55.906Z,101305
2018-10-03T07:47:25.494Z,101304
2018-10-03T07:49:54.328Z,101305
2018-10-03T07:52:23.159Z,101306
2018-10-03T07:54:51.990Z,101311
2018-10-03T07:57:20.821Z,101307
2018-10-03T07:59:49.669Z,101309
2018-10-03T08:02:18.508Z,101311
2018-10-03T08:04:47.335Z,101321
2018-10-03T08:07:16.176Z,101337
2018-10-03T08:09:45.052Z,101337
2018-10-03T08:12:13.843Z,101332
2018-10-03T08:14:42.679Z,101335
2018-10-03T08:17:12.317Z,101334
2018-10-03T08:19:41.105Z,101330
2018-10-03T08:22:10.064Z,101334
2018-10-03T08:24:39.003Z,101327
2018-10-03T08:27:07.773Z,101324
2018-10-03T08:29:36.641Z,101337
2018-10-03T08:32:06.287Z,101323
2018-10-03T08:34:35.076Z,101326
2018-10-03T08:37:16.217Z,101327
2018-10-03T08:39:45.806Z,101337
2018-10-03T08:42:14.655Z,101328
2018-10-03T08:44:43.496Z,101333
2018-10-03T08:47:12.348Z,101342
2018-10-03T08:49:41.209Z,101344
2018-10-03T08:52:10.064Z,101339
2018-10-03T08:54:38.894Z,101341
2018-10-03T08:57:07.739Z,101338
2018-10-03T08:59:37.333Z,101337
2018-10-03T09:02:06.182Z,101342
2018-10-03T09:04:35.019Z,101337
2018-10-03T09:07:04.610Z,101332
2018-10-03T09:09:34.186Z,101335
2018-10-03T09:12:03.033Z,101334
2018-10-03T09:14:32.616Z,101340
2018-10-03T09:17:01.453Z,101335
2018-10-03T09:19:30.286Z,101342
2018-10-03T09:21:59.131Z,101343
2018-10-03T09:24:27.970Z,101347
2018-10-03T09:26:57.405Z,101339
2018-10-03T09:29:26.241Z,101345
2018-10-03T09:31:55.082Z,101346
2018-10-03T09:34:24.651Z,101345
2018-10-03T09:36:53.495Z,101352
2018-10-03T09:39:22.411Z,101351
2018-10-03T09:41:51.158Z,101343
2018-10-03T09:44:20.001Z,101350
2018-10-03T09:46:48.824Z,101361
2018-10-03T09:49:18.397Z,101356
2018-10-03T09:51:47.224Z,101345
2018-10-03T09:54:16.795Z,101343
2018-10-03T09:56:45.639Z,101346
2018-10-03T09:59:14.478Z,101358
2018-10-03T10:01:43.308Z,101360
2018-10-03T10:04:12.143Z,101366
2018-10-03T10:06:40.989Z,101349
2018-10-03T10:09:09.813Z,101360
2018-10-03T10:11:38.772Z,101358
2018-10-03T10:14:07.483Z,101361
2018-10-03T10:16:36.318Z,101361
2018-10-03T10:19:05.900Z,101364
2018-10-03T10:21:34.739Z,101375
2018-10-03T10:24:03.576Z,101376
2018-10-03T10:26:32.401Z,101370
2018-10-03T10:29:01.983Z,101388
2018-10-03T10:31:30.817Z,101382
2018-10-03T10:33:59.673Z,101392
2018-10-03T10:36:28.519Z,101389
2018-10-03T10:38:57.371Z,101389
2018-10-03T10:41:26.347Z,101387
2018-10-03T10:43:55.053Z,101389
2018-10-03T10:46:23.896Z,101387
2018-10-03T10:48:52.734Z,101377
2018-10-03T10:51:21.571Z,101383
2018-10-03T10:53:50.393Z,101384
2018-10-03T10:56:19.980Z,101383
2018-10-03T10:58:48.925Z,101385
2018-10-03T11:01:17.669Z,101383
2018-10-03T11:03:47.245Z,101386
2018-10-03T11:06:16.114Z,101397
2018-10-03T11:08:44.955Z,101400
2018-10-03T11:11:13.801Z,101397
2018-10-03T11:13:42.632Z,101393
2018-10-03T11:16:11.470Z,101394
2018-10-03T11:18:40.328Z,101398
2018-10-03T11:21:09.182Z,101392
2018-10-03T11:23:38.062Z,101388
2018-10-03T11:26:06.837Z,101386
2018-10-03T11:28:35.673Z,101389
2018-10-03T11:31:04.508Z,101390
2018-10-03T11:33:33.350Z,101390
2018-10-03T11:36:02.935Z,101391
2018-10-03T11:38:31.763Z,101385
2018-10-03T11:41:00.629Z,101377
2018-10-03T11:43:30.197Z,101379
2018-10-03T11:45:59.030Z,101384
2018-10-03T11:48:28.608Z,101378
2018-10-03T11:50:57.445Z,101370
2018-10-03T11:53:26.274Z,101375
2018-10-03T11:55:55.118Z,101372
2018-10-03T11:58:23.946Z,101378
2018-10-03T12:00:52.773Z,101369
2018-10-03T12:03:21.678Z,101368
2018-10-03T12:05:50.474Z,101367
2018-10-03T12:08:19.304Z,101371
2018-10-03T12:10:48.139Z,101368
2018-10-03T12:13:17.710Z,101367
2018-10-03T12:15:46.563Z,101371
2018-10-03T12:18:15.396Z,101372
2018-10-03T12:20:44.260Z,101371
2018-10-03T12:23:13.091Z,101372
2018-10-03T12:25:42.673Z,101370
2018-10-03T12:28:11.502Z,101369
2018-10-03T12:30:40.339Z,101361
2018-10-03T12:33:09.166Z,101367
2018-10-03T12:35:38.002Z,101366
2018-10-03T12:38:32.885Z,101375
2018-10-03T12:41:01.733Z,101359
2018-10-03T12:43:30.570Z,101358
2018-10-03T12:45:59.453Z,101368
2018-10-03T12:48:28.271Z,101368
2018-10-03T12:50:57.123Z,101364
2018-10-03T12:53:25.951Z,101372
2018-10-03T12:55:54.806Z,101362
2018-10-03T12:58:23.663Z,101367
2018-10-03T13:00:52.528Z,101363
2018-10-03T13:03:21.357Z,101357
2018-10-03T13:05:50.945Z,101359
2018-10-03T13:08:20.533Z,101348
2018-10-03T13:10:49.364Z,101347
2018-10-03T13:13:18.202Z,101340
2018-10-03T13:15:47.036Z,101347
2018-10-03T13:18:16.624Z,101351
2018-10-03T13:20:45.460Z,101351
2018-10-03T13:23:14.301Z,101351
2018-10-03T13:25:43.130Z,101349
2018-10-03T13:28:11.964Z,101349
2018-10-03T13:30:40.823Z,101370
2018-10-03T13:33:09.677Z,101352
2018-10-03T13:35:39.238Z,101361
2018-10-03T13:38:08.120Z,101363
2018-10-03T13:40:36.949Z,101348
2018-10-03T13:43:05.745Z,101361
2018-10-03T13:45:35.348Z,101351
2018-10-03T13:48:04.943Z,101351
2018-10-03T13:50:33.782Z,101346
2018-10-03T13:53:02.603Z,101348
2018-10-03T13:55:31.438Z,101358
2018-10-03T13:58:00.280Z,101342
2018-10-03T14:00:29.114Z,101337
2018-10-03T14:02:57.953Z,101340
2018-10-03T14:05:26.795Z,101346
2018-10-03T14:07:55.639Z,101344
2018-10-03T14:10:24.519Z,101344
2018-10-03T14:12:53.366Z,101340
2018-10-03T14:15:22.223Z,101340
2018-10-03T14:17:51.093Z,101328
2018-10-03T14:20:19.922Z,101338
2018-10-03T14:22:48.780Z,101344
2018-10-03T14:25:17.609Z,101343
2018-10-03T14:27:46.448Z,101347
2018-10-03T14:30:15.286Z,101344
2018-10-03T14:32:44.121Z,101344
2018-10-03T14:35:12.955Z,101335
2018-10-03T14:37:41.805Z,101341
2018-10-03T14:40:10.643Z,101348
2018-10-03T14:42:39.469Z,101343
2018-10-03T14:45:08.310Z,101351
2018-10-03T14:47:37.135Z,101356
2018-10-03T14:50:05.981Z,101358
2018-10-03T14:52:35.586Z,101352
2018-10-03T14:55:04.416Z,101341
2018-10-03T14:57:33.241Z,101357
2018-10-03T15:00:02.111Z,101349
2018-10-03T15:02:30.957Z,101359
2018-10-03T15:04:59.790Z,101350
2018-10-03T15:07:28.619Z,101352
2018-10-03T15:09:58.187Z,101348
2018-10-03T15:12:27.015Z,101349
2018-10-03T15:14:56.593Z,101343
2018-10-03T15:17:25.417Z,101363
2018-10-03T15:19:54.247Z,101351
2018-10-03T15:22:23.082Z,101361
2018-10-03T15:24:52.665Z,101355
2018-10-03T15:27:21.492Z,101352
2018-10-03T15:29:50.375Z,101356
2018-10-03T15:32:19.163Z,101357
2018-10-03T15:34:48.742Z,101361
2018-10-03T15:37:17.572Z,101364
2018-10-03T15:39:46.414Z,101364
2018-10-03T15:42:15.262Z,101374
2018-10-03T15:44:44.090Z,101370
2018-10-03T15:47:12.929Z,101384
2018-10-03T15:49:41.777Z,101372
2018-10-03T15:52:10.599Z,101372
2018-10-03T15:54:39.458Z,101385
2018-10-03T15:57:08.319Z,101394
2018-10-03T15:59:37.148Z,101393
2018-10-03T16:02:05.985Z,101398
2018-10-03T16:04:34.816Z,101397
2018-10-03T16:07:03.663Z,101403
2018-10-03T16:09:32.504Z,101408
2018-10-03T16:12:01.342Z,101400
2018-10-03T16:14:30.174Z,101415
2018-10-03T16:16:59.037Z,101411
2018-10-03T16:19:27.870Z,101413
2018-10-03T16:21:56.696Z,101417
2018-10-03T16:24:25.544Z,101413
2018-10-03T16:26:55.112Z,101416
2018-10-03T16:29:23.950Z,101414
2018-10-03T16:31:53.521Z,101418
2018-10-03T16:34:22.357Z,101427
2018-10-03T16:36:51.199Z,101427
2018-10-03T16:39:20.042Z,101432
2018-10-03T16:41:48.878Z,101427
2018-10-03T16:44:17.714Z,101428
2018-10-03T16:46:46.559Z,101424
2018-10-03T16:49:15.400Z,101429
2018-10-03T16:51:44.253Z,101433
2018-10-03T16:54:13.830Z,101434
2018-10-03T16:56:42.668Z,101438
2018-10-03T16:59:11.497Z,101444
2018-10-03T17:01:40.340Z,101442
2018-10-03T17:04:09.915Z,101441
2018-10-03T17:06:38.757Z,101439
2018-10-03T17:09:07.606Z,101452
2018-10-03T17:11:36.453Z,101453
2018-10-03T17:14:05.299Z,101454
2018-10-03T17:16:34.132Z,101467
2018-10-03T17:19:02.969Z,101467
2018-10-03T17:21:31.824Z,101474
2018-10-03T17:24:00.665Z,101470
2018-10-03T17:26:29.497Z,101480
2018-10-03T17:28:58.332Z,101486
2018-10-03T17:31:27.909Z,101496
2018-10-03T17:33:56.829Z,101496
2018-10-03T17:36:25.610Z,101502
2018-10-03T17:38:55.229Z,101503
2018-10-03T17:41:24.065Z,101499
2018-10-03T17:43:52.907Z,101502
2018-10-03T17:46:21.750Z,101504
2018-10-03T17:48:50.619Z,101507
2018-10-03T17:51:19.419Z,101500
2018-10-03T17:53:48.279Z,101512
2018-10-03T17:56:17.128Z,101507
2018-10-03T17:58:46.568Z,101512
2018-10-03T18:01:15.420Z,101511
2018-10-03T18:03:44.274Z,101518
2018-10-03T18:06:13.109Z,101519
2018-10-03T18:08:41.964Z,101526
2018-10-03T18:11:10.807Z,101524
2018-10-03T18:13:39.787Z,101529
2018-10-03T18:16:08.569Z,101528
2018-10-03T18:18:37.361Z,101534
2018-10-03T18:21:06.207Z,101544
2018-10-03T18:23:35.042Z,101545
2018-10-03T18:26:04.646Z,101546
2018-10-03T18:28:33.488Z,101548
2018-10-03T18:31:02.320Z,101554
2018-10-03T18:33:31.906Z,101546
2018-10-03T18:36:00.756Z,101560
2018-10-03T18:38:29.619Z,101559
2018-10-03T18:40:58.471Z,101554
2018-10-03T18:43:27.317Z,101558
2018-10-03T18:45:56.169Z,101562
2018-10-03T18:48:25.033Z,101564
2018-10-03T18:50:53.866Z,101570
2018-10-03T18:53:22.744Z,101562
2018-10-03T18:55:52.321Z,101569
2018-10-03T18:58:21.165Z,101574
2018-10-03T19:00:50.068Z,101579
2018-10-03T19:03:18.863Z,101573
2018-10-03T19:05:47.753Z,101576
2018-10-03T19:08:16.552Z,101578
2018-10-03T19:10:45.384Z,101586
2018-10-03T19:13:14.967Z,101592
2018-10-03T19:15:43.817Z,101599
2018-10-03T19:18:12.709Z,101592
2018-10-03T19:20:42.245Z,101601
2018-10-03T19:23:11.839Z,101604
2018-10-03T19:25:40.691Z,101605
2018-10-03T19:28:09.543Z,101600
2018-10-03T19:30:38.395Z,101606
2018-10-03T19:33:07.243Z,101601
2018-10-03T19:35:36.142Z,101597
2018-10-03T19:38:04.945Z,101604
2018-10-03T19:40:33.786Z,101605
2018-10-03T19:43:02.643Z,101612
2018-10-03T19:45:31.531Z,101605
2018-10-03T19:48:00.349Z,101608
2018-10-03T19:50:29.161Z,101612
2018-10-03T19:52:58.793Z,101625
2018-10-03T19:55:28.338Z,101617
2018-10-03T19:57:57.198Z,101623
2018-10-03T20:00:26.038Z,101621
2018-10-03T20:02:54.910Z,101619
2018-10-03T20:05:23.750Z,101626
2018-10-03T20:07:52.594Z,101617
2018-10-03T20:10:21.457Z,101624
2018-10-03T20:12:50.301Z,101625
2018-10-03T20:15:19.878Z,101618
2018-10-03T20:17:48.730Z,101623
2018-10-03T20:20:17.578Z,101620
2018-10-03T20:22:46.409Z,101629
2018-10-03T20:25:15.245Z,101626
2018-10-03T20:27:44.873Z,101634
2018-10-03T20:30:13.717Z,101631
2018-10-03T20:32:42.581Z,101633
2018-10-03T20:35:11.424Z,101631
2018-10-03T20:37:41.015Z,101639
2018-10-03T20:40:09.895Z,101647
2018-10-03T20:42:38.725Z,101634
2018-10-03T20:45:08.321Z,101633
2018-10-03T20:47:37.172Z,101635
2018-10-03T20:50:06.014Z,101625
2018-10-03T20:52:37.035Z,101631
2018-10-03T20:55:05.685Z,101637
2018-10-03T20:57:34.522Z,101641
2018-10-03T21:00:04.167Z,101628
2018-10-03T21:02:33.704Z,101621
2018-10-03T21:05:02.547Z,101630
2018-10-03T21:07:31.388Z,101621
2018-10-03T21:10:00.232Z,101627
2018-10-03T21:12:29.074Z,101631
2018-10-03T21:14:57.913Z,101622
2018-10-03T21:17:26.745Z,101623
2018-10-03T21:19:55.594Z,101622
2018-10-03T21:22:24.445Z,101622
2018-10-03T21:24:53.328Z,101622
2018-10-03T21:27:22.133Z,101627
2018-10-03T21:29:50.986Z,101632
2018-10-03T21:32:19.836Z,101639
2018-10-03T21:34:48.690Z,101626
2018-10-03T21:37:18.269Z,101618
2018-10-03T21:39:47.121Z,101619
2018-10-03T21:42:15.967Z,101626
2018-10-03T21:44:45.588Z,101622
2018-10-03T21:47:14.392Z,101622
2018-10-03T21:49:43.361Z,101625
2018-10-03T21:52:12.108Z,101629
2018-10-03T21:54:40.972Z,101630
2018-10-03T21:57:09.820Z,101630
2018-10-03T21:59:39.415Z,101635
2018-10-03T22:02:08.259Z,101628
2018-10-03T22:04:37.085Z,101636
2018-10-03T22:07:05.913Z,101628
2018-10-03T22:09:34.821Z,101628
2018-10-03T22:12:03.664Z,101634
2018-10-03T22:14:33.088Z,101634
2018-10-03T22:17:01.957Z,101625
2018-10-03T22:19:30.808Z,101625
2018-10-03T22:21:59.648Z,101626
2018-10-03T22:24:28.495Z,101626
2018-10-03T22:26:57.326Z,101617
2018-10-03T22:29:26.168Z,101619
2018-10-03T22:31:55.011Z,101615
2018-10-03T22:34:24.575Z,101623
2018-10-03T22:36:53.425Z,101618
2018-10-03T22:39:22.289Z,101615
2018-10-03T22:41:51.869Z,101618
2018-10-03T22:44:20.717Z,101613
2018-10-03T22:46:49.559Z,101616
2018-10-03T22:49:18.412Z,101616
2018-10-03T22:51:47.251Z,101620
2018-10-03T22:54:16.087Z,101608
2018-10-03T22:56:44.928Z,101618
2018-10-03T22:59:14.501Z,101628
2018-10-03T23:01:43.344Z,101628
2018-10-03T23:04:12.177Z,101628
2018-10-03T23:06:41.003Z,101630
2018-10-03T23:09:09.860Z,101630
2018-10-03T23:11:38.686Z,101628
2018-10-03T23:14:08.260Z,101637
2018-10-03T23:16:37.100Z,101637
2018-10-03T23:19:05.944Z,101641
2018-10-03T23:21:34.797Z,101636
2018-10-03T23:24:03.638Z,101640
2018-10-03T23:26:32.486Z,101641
2018-10-03T23:29:01.337Z,101639
2018-10-03T23:31:30.180Z,101652
2018-10-03T23:33:59.011Z,101640
2018-10-03T23:36:27.853Z,101647
2018-10-03T23:38:56.698Z,101646
2018-10-03T23:41:25.541Z,101656
2018-10-03T23:43:54.376Z,101654
2018-10-03T23:46:23.221Z,101645
2018-10-03T23:48:52.066Z,101653
2018-10-03T23:51:20.909Z,101643
2018-10-03T23:53:49.749Z,101650
2018-10-03T23:56:18.581Z,101655
2018-10-03T23:58:48.000Z,101653
